sensor_id;sensor_type;location;lat;lon;timestamp;temperature;humidity
16402;DHT22;8310;44.626;11.176;2023-05-07T00:02:19;20.80;57.10
16402;DHT22;8310;44.626;11.176;2023-05-07T00:04:46;20.60;57.00
16402;DHT22;8310;44.626;11.176;2023-05-07T00:07:13;20.60;57.00
16402;DHT22;8310;44.626;11.176;2023-05-07T00:09:42;20.50;57.20
16402;DHT22;8310;44.626;11.176;2023-05-07T00:12:10;20.50;57.40
16402;DHT22;8310;44.626;11.176;2023-05-07T00:14:37;20.40;57.00
16402;DHT22;8310;44.626;11.176;2023-05-07T00:17:04;20.30;56.90
16402;DHT22;8310;44.626;11.176;2023-05-07T00:19:32;20.20;57.00
16402;DHT22;8310;44.626;11.176;2023-05-07T00:21:59;20.20;57.20
16402;DHT22;8310;44.626;11.176;2023-05-07T00:24:26;20.20;57.30
16402;DHT22;8310;44.626;11.176;2023-05-07T00:26:55;20.20;57.70
16402;DHT22;8310;44.626;11.176;2023-05-07T00:29:23;20.20;57.50
16402;DHT22;8310;44.626;11.176;2023-05-07T00:31:51;20.10;57.10
16402;DHT22;8310;44.626;11.176;2023-05-07T00:34:19;20.10;57.10
16402;DHT22;8310;44.626;11.176;2023-05-07T00:36:47;20.00;57.10
16402;DHT22;8310;44.626;11.176;2023-05-07T00:39:14;19.90;58.10
16402;DHT22;8310;44.626;11.176;2023-05-07T00:41:41;19.80;57.30
16402;DHT22;8310;44.626;11.176;2023-05-07T00:44:10;19.70;57.30
16402;DHT22;8310;44.626;11.176;2023-05-07T00:46:37;19.70;57.20
16402;DHT22;8310;44.626;11.176;2023-05-07T00:49:05;19.60;57.10
16402;DHT22;8310;44.626;11.176;2023-05-07T00:51:32;19.60;57.20
16402;DHT22;8310;44.626;11.176;2023-05-07T00:53:59;19.60;57.30
16402;DHT22;8310;44.626;11.176;2023-05-07T00:56:27;19.60;57.50
16402;DHT22;8310;44.626;11.176;2023-05-07T00:58:54;19.70;57.60
16402;DHT22;8310;44.626;11.176;2023-05-07T01:01:23;19.70;57.40
16402;DHT22;8310;44.626;11.176;2023-05-07T01:03:50;19.60;57.30
16402;DHT22;8310;44.626;11.176;2023-05-07T01:06:17;19.60;58.60
16402;DHT22;8310;44.626;11.176;2023-05-07T01:08:45;19.50;57.20
16402;DHT22;8310;44.626;11.176;2023-05-07T01:11:12;19.40;57.00
16402;DHT22;8310;44.626;11.176;2023-05-07T01:13:40;19.40;57.00
16402;DHT22;8310;44.626;11.176;2023-05-07T01:16:08;19.30;57.10
16402;DHT22;8310;44.626;11.176;2023-05-07T01:18:37;19.30;57.20
16402;DHT22;8310;44.626;11.176;2023-05-07T01:21:04;19.20;57.30
16402;DHT22;8310;44.626;11.176;2023-05-07T01:23:33;19.30;58.10
16402;DHT22;8310;44.626;11.176;2023-05-07T01:26:02;19.30;58.10
16402;DHT22;8310;44.626;11.176;2023-05-07T01:28:29;19.30;57.50
16402;DHT22;8310;44.626;11.176;2023-05-07T01:30:58;19.30;57.50
16402;DHT22;8310;44.626;11.176;2023-05-07T01:33:26;19.30;57.50
16402;DHT22;8310;44.626;11.176;2023-05-07T01:35:56;19.30;57.50
16402;DHT22;8310;44.626;11.176;2023-05-07T01:38:25;19.30;57.50
16402;DHT22;8310;44.626;11.176;2023-05-07T01:40:55;19.30;57.50
16402;DHT22;8310;44.626;11.176;2023-05-07T01:43:23;19.30;57.50
16402;DHT22;8310;44.626;11.176;2023-05-07T01:45:50;19.30;57.50
16402;DHT22;8310;44.626;11.176;2023-05-07T01:48:18;19.30;57.50
16402;DHT22;8310;44.626;11.176;2023-05-07T01:50:45;19.20;57.40
16402;DHT22;8310;44.626;11.176;2023-05-07T01:53:12;19.20;57.90
16402;DHT22;8310;44.626;11.176;2023-05-07T01:55:40;19.10;57.30
16402;DHT22;8310;44.626;11.176;2023-05-07T01:58:08;19.00;57.30
16402;DHT22;8310;44.626;11.176;2023-05-07T02:00:36;19.00;57.30
16402;DHT22;8310;44.626;11.176;2023-05-07T02:03:03;18.90;57.30
16402;DHT22;8310;44.626;11.176;2023-05-07T02:05:30;18.90;57.30
16402;DHT22;8310;44.626;11.176;2023-05-07T02:07:57;18.80;57.40
16402;DHT22;8310;44.626;11.176;2023-05-07T02:10:25;18.80;57.40
16402;DHT22;8310;44.626;11.176;2023-05-07T02:12:52;18.80;57.30
16402;DHT22;8310;44.626;11.176;2023-05-07T02:15:21;18.70;57.30
16402;DHT22;8310;44.626;11.176;2023-05-07T02:17:58;18.60;57.30
16402;DHT22;8310;44.626;11.176;2023-05-07T02:20:25;18.60;57.30
16402;DHT22;8310;44.626;11.176;2023-05-07T02:22:53;18.50;57.20
16402;DHT22;8310;44.626;11.176;2023-05-07T02:25:20;18.50;57.20
16402;DHT22;8310;44.626;11.176;2023-05-07T02:27:48;18.40;57.20
16402;DHT22;8310;44.626;11.176;2023-05-07T02:30:15;18.40;57.40
16402;DHT22;8310;44.626;11.176;2023-05-07T02:32:44;18.40;57.40
16402;DHT22;8310;44.626;11.176;2023-05-07T02:35:11;18.30;58.00
16402;DHT22;8310;44.626;11.176;2023-05-07T02:37:39;18.30;57.40
16402;DHT22;8310;44.626;11.176;2023-05-07T02:40:06;18.30;57.50
16402;DHT22;8310;44.626;11.176;2023-05-07T02:42:33;18.30;57.50
16402;DHT22;8310;44.626;11.176;2023-05-07T02:45:01;18.30;57.40
16402;DHT22;8310;44.626;11.176;2023-05-07T02:47:27;18.30;57.30
16402;DHT22;8310;44.626;11.176;2023-05-07T02:49:56;18.20;57.20
16402;DHT22;8310;44.626;11.176;2023-05-07T02:52:23;18.10;57.20
16402;DHT22;8310;44.626;11.176;2023-05-07T02:54:51;18.00;57.20
16402;DHT22;8310;44.626;11.176;2023-05-07T02:57:18;18.00;57.20
16402;DHT22;8310;44.626;11.176;2023-05-07T02:59:46;17.90;57.10
16402;DHT22;8310;44.626;11.176;2023-05-07T03:02:13;17.80;57.10
16402;DHT22;8310;44.626;11.176;2023-05-07T03:04:40;17.70;57.20
16402;DHT22;8310;44.626;11.176;2023-05-07T03:07:09;17.70;57.30
16402;DHT22;8310;44.626;11.176;2023-05-07T03:09:37;17.70;57.30
16402;DHT22;8310;44.626;11.176;2023-05-07T03:12:04;17.60;57.50
16402;DHT22;8310;44.626;11.176;2023-05-07T03:14:32;17.60;57.30
16402;DHT22;8310;44.626;11.176;2023-05-07T03:16:59;17.60;57.40
16402;DHT22;8310;44.626;11.176;2023-05-07T03:19:26;17.50;57.30
16402;DHT22;8310;44.626;11.176;2023-05-07T03:21:54;17.50;57.40
16402;DHT22;8310;44.626;11.176;2023-05-07T03:24:22;17.50;57.40
16402;DHT22;8310;44.626;11.176;2023-05-07T03:26:50;17.50;57.40
16402;DHT22;8310;44.626;11.176;2023-05-07T03:29:18;17.50;57.50
16402;DHT22;8310;44.626;11.176;2023-05-07T03:31:45;17.40;57.40
16402;DHT22;8310;44.626;11.176;2023-05-07T03:34:12;17.40;57.40
16402;DHT22;8310;44.626;11.176;2023-05-07T03:36:40;17.40;57.30
16402;DHT22;8310;44.626;11.176;2023-05-07T03:39:07;17.30;57.30
16402;DHT22;8310;44.626;11.176;2023-05-07T03:41:36;17.30;57.30
16402;DHT22;8310;44.626;11.176;2023-05-07T03:44:03;17.30;57.30
16402;DHT22;8310;44.626;11.176;2023-05-07T03:46:31;17.20;57.30
16402;DHT22;8310;44.626;11.176;2023-05-07T03:48:58;17.20;57.30
16402;DHT22;8310;44.626;11.176;2023-05-07T03:51:26;17.10;57.30
16402;DHT22;8310;44.626;11.176;2023-05-07T03:56:30;17.10;57.40
16402;DHT22;8310;44.626;11.176;2023-05-07T03:58:59;17.00;57.40
16402;DHT22;8310;44.626;11.176;2023-05-07T04:01:26;17.00;57.50
16402;DHT22;8310;44.626;11.176;2023-05-07T04:03:54;17.00;57.40
16402;DHT22;8310;44.626;11.176;2023-05-07T04:06:21;17.00;57.40
16402;DHT22;8310;44.626;11.176;2023-05-07T04:08:48;17.00;57.40
16402;DHT22;8310;44.626;11.176;2023-05-07T04:11:15;16.90;57.40
16402;DHT22;8310;44.626;11.176;2023-05-07T04:13:42;16.90;57.40
16402;DHT22;8310;44.626;11.176;2023-05-07T04:16:11;16.90;57.50
16402;DHT22;8310;44.626;11.176;2023-05-07T04:18:39;16.80;57.50
16402;DHT22;8310;44.626;11.176;2023-05-07T04:21:06;16.80;57.60
16402;DHT22;8310;44.626;11.176;2023-05-07T04:23:40;16.80;57.60
16402;DHT22;8310;44.626;11.176;2023-05-07T04:26:07;16.90;57.80
16402;DHT22;8310;44.626;11.176;2023-05-07T04:28:34;16.90;57.80
16402;DHT22;8310;44.626;11.176;2023-05-07T04:31:02;16.90;57.80
16402;DHT22;8310;44.626;11.176;2023-05-07T04:33:31;17.00;57.90
16402;DHT22;8310;44.626;11.176;2023-05-07T04:35:59;17.00;57.90
16402;DHT22;8310;44.626;11.176;2023-05-07T04:38:28;17.00;58.00
16402;DHT22;8310;44.626;11.176;2023-05-07T04:40:55;17.10;58.00
16402;DHT22;8310;44.626;11.176;2023-05-07T04:43:23;17.10;58.00
16402;DHT22;8310;44.626;11.176;2023-05-07T04:45:50;17.10;58.00
16402;DHT22;8310;44.626;11.176;2023-05-07T04:48:20;17.20;58.10
16402;DHT22;8310;44.626;11.176;2023-05-07T04:50:48;17.20;58.20
16402;DHT22;8310;44.626;11.176;2023-05-07T04:53:15;17.20;58.20
16402;DHT22;8310;44.626;11.176;2023-05-07T04:55:43;17.30;58.30
16402;DHT22;8310;44.626;11.176;2023-05-07T04:58:10;17.30;58.40
16402;DHT22;8310;44.626;11.176;2023-05-07T05:00:37;17.40;58.50
16402;DHT22;8310;44.626;11.176;2023-05-07T05:03:04;17.50;58.60
16402;DHT22;8310;44.626;11.176;2023-05-07T05:05:31;17.50;58.70
16402;DHT22;8310;44.626;11.176;2023-05-07T05:08:00;17.60;58.80
16402;DHT22;8310;44.626;11.176;2023-05-07T05:10:27;17.70;58.80
16402;DHT22;8310;44.626;11.176;2023-05-07T05:12:54;17.80;58.90
16402;DHT22;8310;44.626;11.176;2023-05-07T05:15:22;17.80;59.00
16402;DHT22;8310;44.626;11.176;2023-05-07T05:17:49;17.90;59.00
16402;DHT22;8310;44.626;11.176;2023-05-07T05:20:16;18.00;59.10
16402;DHT22;8310;44.626;11.176;2023-05-07T05:22:43;18.00;59.00
16402;DHT22;8310;44.626;11.176;2023-05-07T05:25:12;18.10;59.30
16402;DHT22;8310;44.626;11.176;2023-05-07T05:27:39;18.20;59.40
16402;DHT22;8310;44.626;11.176;2023-05-07T05:30:07;18.30;59.50
16402;DHT22;8310;44.626;11.176;2023-05-07T05:32:34;18.40;59.60
16402;DHT22;8310;44.626;11.176;2023-05-07T05:35:02;18.50;59.70
16402;DHT22;8310;44.626;11.176;2023-05-07T05:37:29;18.60;59.80
16402;DHT22;8310;44.626;11.176;2023-05-07T05:39:58;18.80;59.90
16402;DHT22;8310;44.626;11.176;2023-05-07T05:42:27;18.90;60.00
16402;DHT22;8310;44.626;11.176;2023-05-07T05:44:54;19.00;60.10
16402;DHT22;8310;44.626;11.176;2023-05-07T05:47:22;19.20;60.30
16402;DHT22;8310;44.626;11.176;2023-05-07T05:49:49;19.30;60.60
16402;DHT22;8310;44.626;11.176;2023-05-07T05:52:16;19.40;60.80
16402;DHT22;8310;44.626;11.176;2023-05-07T05:54:44;19.50;60.60
16402;DHT22;8310;44.626;11.176;2023-05-07T05:57:11;19.60;60.70
16402;DHT22;8310;44.626;11.176;2023-05-07T05:59:39;19.70;60.70
16402;DHT22;8310;44.626;11.176;2023-05-07T06:02:07;19.80;62.60
16402;DHT22;8310;44.626;11.176;2023-05-07T06:04:34;19.90;62.40
16402;DHT22;8310;44.626;11.176;2023-05-07T06:07:01;20.00;61.50
16402;DHT22;8310;44.626;11.176;2023-05-07T06:09:28;20.20;61.20
16402;DHT22;8310;44.626;11.176;2023-05-07T06:11:56;20.30;61.00
16402;DHT22;8310;44.626;11.176;2023-05-07T06:14:23;20.30;61.00
16402;DHT22;8310;44.626;11.176;2023-05-07T06:16:52;20.40;60.70
16402;DHT22;8310;44.626;11.176;2023-05-07T06:19:20;20.40;60.90
16402;DHT22;8310;44.626;11.176;2023-05-07T06:21:49;20.50;60.80
16402;DHT22;8310;44.626;11.176;2023-05-07T06:24:16;20.50;60.80
16402;DHT22;8310;44.626;11.176;2023-05-07T06:26:44;20.50;60.80
16402;DHT22;8310;44.626;11.176;2023-05-07T06:29:10;20.60;60.70
16402;DHT22;8310;44.626;11.176;2023-05-07T06:31:38;20.60;60.70
16402;DHT22;8310;44.626;11.176;2023-05-07T06:34:06;20.70;60.70
16402;DHT22;8310;44.626;11.176;2023-05-07T06:36:34;20.80;61.10
16402;DHT22;8310;44.626;11.176;2023-05-07T06:39:01;20.90;61.50
16402;DHT22;8310;44.626;11.176;2023-05-07T06:41:28;21.00;61.30
16402;DHT22;8310;44.626;11.176;2023-05-07T06:43:55;21.10;61.20
16402;DHT22;8310;44.626;11.176;2023-05-07T06:46:22;21.20;61.20
16402;DHT22;8310;44.626;11.176;2023-05-07T06:48:49;21.30;61.70
16402;DHT22;8310;44.626;11.176;2023-05-07T06:51:19;21.40;63.90
16402;DHT22;8310;44.626;11.176;2023-05-07T06:53:46;21.50;62.50
16402;DHT22;8310;44.626;11.176;2023-05-07T06:56:13;21.70;63.60
16402;DHT22;8310;44.626;11.176;2023-05-07T06:58:40;21.80;62.20
16402;DHT22;8310;44.626;11.176;2023-05-07T07:01:07;21.90;63.80
16402;DHT22;8310;44.626;11.176;2023-05-07T07:03:35;22.00;63.20
16402;DHT22;8310;44.626;11.176;2023-05-07T07:06:02;22.10;62.90
16402;DHT22;8310;44.626;11.176;2023-05-07T07:08:31;22.20;62.90
16402;DHT22;8310;44.626;11.176;2023-05-07T07:10:58;22.30;62.80
16402;DHT22;8310;44.626;11.176;2023-05-07T07:13:25;22.50;63.90
16402;DHT22;8310;44.626;11.176;2023-05-07T07:15:53;22.60;63.10
16402;DHT22;8310;44.626;11.176;2023-05-07T07:18:20;22.70;63.30
16402;DHT22;8310;44.626;11.176;2023-05-07T07:20:47;22.80;63.20
16402;DHT22;8310;44.626;11.176;2023-05-07T07:23:14;22.90;63.00
16402;DHT22;8310;44.626;11.176;2023-05-07T07:25:43;23.00;62.70
16402;DHT22;8310;44.626;11.176;2023-05-07T07:28:10;23.10;62.60
16402;DHT22;8310;44.626;11.176;2023-05-07T07:30:37;23.20;62.40
16402;DHT22;8310;44.626;11.176;2023-05-07T07:33:04;23.30;62.50
16402;DHT22;8310;44.626;11.176;2023-05-07T07:35:31;23.30;62.30
16402;DHT22;8310;44.626;11.176;2023-05-07T07:37:59;23.40;62.30
16402;DHT22;8310;44.626;11.176;2023-05-07T07:40:26;23.50;62.40
16402;DHT22;8310;44.626;11.176;2023-05-07T07:42:56;23.60;62.50
16402;DHT22;8310;44.626;11.176;2023-05-07T07:45:24;23.70;62.50
16402;DHT22;8310;44.626;11.176;2023-05-07T07:47:51;23.80;62.60
16402;DHT22;8310;44.626;11.176;2023-05-07T07:50:18;24.00;62.40
16402;DHT22;8310;44.626;11.176;2023-05-07T07:52:45;24.00;62.40
16402;DHT22;8310;44.626;11.176;2023-05-07T07:55:12;24.10;62.10
16402;DHT22;8310;44.626;11.176;2023-05-07T07:57:39;24.20;62.20
16402;DHT22;8310;44.626;11.176;2023-05-07T08:00:09;24.30;62.40
16402;DHT22;8310;44.626;11.176;2023-05-07T08:02:36;24.40;62.30
16402;DHT22;8310;44.626;11.176;2023-05-07T08:05:03;24.50;62.30
16402;DHT22;8310;44.626;11.176;2023-05-07T08:07:30;24.60;62.30
16402;DHT22;8310;44.626;11.176;2023-05-07T08:09:57;24.60;62.20
16402;DHT22;8310;44.626;11.176;2023-05-07T08:12:24;24.80;62.30
16402;DHT22;8310;44.626;11.176;2023-05-07T08:14:52;24.90;61.80
16402;DHT22;8310;44.626;11.176;2023-05-07T08:17:21;25.00;62.00
16402;DHT22;8310;44.626;11.176;2023-05-07T08:19:48;25.00;62.00
16402;DHT22;8310;44.626;11.176;2023-05-07T08:22:16;25.10;62.10
16402;DHT22;8310;44.626;11.176;2023-05-07T08:24:43;25.20;62.10
16402;DHT22;8310;44.626;11.176;2023-05-07T08:27:11;25.30;61.50
16402;DHT22;8310;44.626;11.176;2023-05-07T08:29:38;25.40;61.90
16402;DHT22;8310;44.626;11.176;2023-05-07T08:32:05;25.50;62.00
16402;DHT22;8310;44.626;11.176;2023-05-07T08:34:34;25.60;62.00
16402;DHT22;8310;44.626;11.176;2023-05-07T08:37:01;25.60;61.90
16402;DHT22;8310;44.626;11.176;2023-05-07T08:39:28;25.70;61.80
16402;DHT22;8310;44.626;11.176;2023-05-07T08:41:56;25.80;60.30
16402;DHT22;8310;44.626;11.176;2023-05-07T08:44:24;25.80;60.60
16402;DHT22;8310;44.626;11.176;2023-05-07T08:46:54;25.80;59.70
16402;DHT22;8310;44.626;11.176;2023-05-07T08:49:22;25.90;59.30
16402;DHT22;8310;44.626;11.176;2023-05-07T08:51:51;25.90;60.50
16402;DHT22;8310;44.626;11.176;2023-05-07T08:54:18;26.00;60.70
16402;DHT22;8310;44.626;11.176;2023-05-07T08:56:47;26.00;58.70
16402;DHT22;8310;44.626;11.176;2023-05-07T08:59:14;26.00;58.50
16402;DHT22;8310;44.626;11.176;2023-05-07T09:01:41;26.10;60.40
16402;DHT22;8310;44.626;11.176;2023-05-07T09:04:08;26.20;60.90
16402;DHT22;8310;44.626;11.176;2023-05-07T09:06:36;26.30;61.20
16402;DHT22;8310;44.626;11.176;2023-05-07T09:09:04;26.40;60.20
16402;DHT22;8310;44.626;11.176;2023-05-07T09:11:31;26.50;61.30
16402;DHT22;8310;44.626;11.176;2023-05-07T09:13:59;26.60;60.90
16402;DHT22;8310;44.626;11.176;2023-05-07T09:16:27;26.70;60.70
16402;DHT22;8310;44.626;11.176;2023-05-07T09:18:56;26.80;60.80
16402;DHT22;8310;44.626;11.176;2023-05-07T09:21:24;26.80;60.80
16402;DHT22;8310;44.626;11.176;2023-05-07T09:23:52;26.90;59.10
16402;DHT22;8310;44.626;11.176;2023-05-07T09:26:22;27.00;60.60
16402;DHT22;8310;44.626;11.176;2023-05-07T09:28:49;27.00;60.90
16402;DHT22;8310;44.626;11.176;2023-05-07T09:31:17;27.00;61.00
16402;DHT22;8310;44.626;11.176;2023-05-07T09:33:44;27.00;60.70
16402;DHT22;8310;44.626;11.176;2023-05-07T09:36:11;27.00;58.00
16402;DHT22;8310;44.626;11.176;2023-05-07T09:38:39;27.10;59.90
16402;DHT22;8310;44.626;11.176;2023-05-07T09:41:07;27.10;59.90
16402;DHT22;8310;44.626;11.176;2023-05-07T09:43:37;27.20;60.60
16402;DHT22;8310;44.626;11.176;2023-05-07T09:46:08;27.30;60.90
16402;DHT22;8310;44.626;11.176;2023-05-07T09:48:36;27.40;61.10
16402;DHT22;8310;44.626;11.176;2023-05-07T09:51:05;27.50;61.20
16402;DHT22;8310;44.626;11.176;2023-05-07T09:53:33;27.60;61.50
16402;DHT22;8310;44.626;11.176;2023-05-07T09:56:00;27.70;61.00
16402;DHT22;8310;44.626;11.176;2023-05-07T09:58:28;27.90;61.20
16402;DHT22;8310;44.626;11.176;2023-05-07T10:00:56;28.00;61.20
16402;DHT22;8310;44.626;11.176;2023-05-07T10:03:24;28.00;60.10
16402;DHT22;8310;44.626;11.176;2023-05-07T10:05:54;28.10;61.00
16402;DHT22;8310;44.626;11.176;2023-05-07T10:08:21;28.10;60.40
16402;DHT22;8310;44.626;11.176;2023-05-07T10:10:48;28.20;61.00
16402;DHT22;8310;44.626;11.176;2023-05-07T10:13:16;28.20;60.80
16402;DHT22;8310;44.626;11.176;2023-05-07T10:15:43;28.30;60.40
16402;DHT22;8310;44.626;11.176;2023-05-07T10:18:13;28.40;60.90
16402;DHT22;8310;44.626;11.176;2023-05-07T10:20:40;28.50;60.80
16402;DHT22;8310;44.626;11.176;2023-05-07T10:23:09;28.50;60.40
16402;DHT22;8310;44.626;11.176;2023-05-07T10:25:39;28.60;60.80
16402;DHT22;8310;44.626;11.176;2023-05-07T10:28:08;28.70;60.60
16402;DHT22;8310;44.626;11.176;2023-05-07T10:30:39;28.80;61.00
16402;DHT22;8310;44.626;11.176;2023-05-07T10:33:08;28.90;60.20
16402;DHT22;8310;44.626;11.176;2023-05-07T10:35:38;28.90;60.20
16402;DHT22;8310;44.626;11.176;2023-05-07T10:38:05;29.00;61.20
16402;DHT22;8310;44.626;11.176;2023-05-07T10:40:33;29.00;60.70
16402;DHT22;8310;44.626;11.176;2023-05-07T10:43:00;29.00;60.60
16402;DHT22;8310;44.626;11.176;2023-05-07T10:45:28;29.10;60.70
16402;DHT22;8310;44.626;11.176;2023-05-07T10:48:06;29.10;59.80
16402;DHT22;8310;44.626;11.176;2023-05-07T10:50:33;29.10;60.10
16402;DHT22;8310;44.626;11.176;2023-05-07T10:55:47;29.20;60.70
16402;DHT22;8310;44.626;11.176;2023-05-07T10:58:24;29.30;60.40
16402;DHT22;8310;44.626;11.176;2023-05-07T11:00:56;29.30;59.80
16402;DHT22;8310;44.626;11.176;2023-05-07T11:03:23;29.40;58.80
16402;DHT22;8310;44.626;11.176;2023-05-07T11:11:16;29.60;60.60
16402;DHT22;8310;44.626;11.176;2023-05-07T11:13:44;29.70;60.70
16402;DHT22;8310;44.626;11.176;2023-05-07T11:16:18;29.70;59.50
16402;DHT22;8310;44.626;11.176;2023-05-07T11:18:46;29.80;60.30
16402;DHT22;8310;44.626;11.176;2023-05-07T11:21:14;29.80;60.50
16402;DHT22;8310;44.626;11.176;2023-05-07T11:23:58;29.90;59.50
16402;DHT22;8310;44.626;11.176;2023-05-07T11:26:27;29.90;60.00
16402;DHT22;8310;44.626;11.176;2023-05-07T11:28:55;30.00;60.10
16402;DHT22;8310;44.626;11.176;2023-05-07T11:31:23;30.00;60.00
16402;DHT22;8310;44.626;11.176;2023-05-07T11:33:51;30.00;60.30
16402;DHT22;8310;44.626;11.176;2023-05-07T11:36:18;30.10;60.40
16402;DHT22;8310;44.626;11.176;2023-05-07T11:38:46;30.10;60.30
16402;DHT22;8310;44.626;11.176;2023-05-07T11:41:15;30.20;60.50
16402;DHT22;8310;44.626;11.176;2023-05-07T11:43:56;30.30;60.50
16402;DHT22;8310;44.626;11.176;2023-05-07T11:46:28;30.30;60.30
16402;DHT22;8310;44.626;11.176;2023-05-07T11:48:55;30.30;60.90
16402;DHT22;8310;44.626;11.176;2023-05-07T11:51:23;30.40;60.10
16402;DHT22;8310;44.626;11.176;2023-05-07T11:53:51;30.40;60.10
16402;DHT22;8310;44.626;11.176;2023-05-07T11:56:18;30.40;60.20
16402;DHT22;8310;44.626;11.176;2023-05-07T11:58:46;30.50;60.40
16402;DHT22;8310;44.626;11.176;2023-05-07T12:01:15;30.60;60.30
16402;DHT22;8310;44.626;11.176;2023-05-07T12:03:44;30.60;60.20
16402;DHT22;8310;44.626;11.176;2023-05-07T12:06:12;30.60;59.60
16402;DHT22;8310;44.626;11.176;2023-05-07T12:08:40;30.70;60.00
16402;DHT22;8310;44.626;11.176;2023-05-07T12:11:08;30.70;60.20
16402;DHT22;8310;44.626;11.176;2023-05-07T12:13:37;30.80;60.20
16402;DHT22;8310;44.626;11.176;2023-05-07T12:16:05;30.90;60.30
16402;DHT22;8310;44.626;11.176;2023-05-07T12:18:34;30.90;60.30
16402;DHT22;8310;44.626;11.176;2023-05-07T12:21:01;31.00;60.40
16402;DHT22;8310;44.626;11.176;2023-05-07T12:23:29;31.00;60.20
16402;DHT22;8310;44.626;11.176;2023-05-07T12:25:56;31.10;60.20
16402;DHT22;8310;44.626;11.176;2023-05-07T12:28:24;31.10;60.10
16402;DHT22;8310;44.626;11.176;2023-05-07T12:30:51;31.10;59.40
16402;DHT22;8310;44.626;11.176;2023-05-07T12:33:23;31.10;59.70
16402;DHT22;8310;44.626;11.176;2023-05-07T12:35:57;31.10;59.80
16402;DHT22;8310;44.626;11.176;2023-05-07T12:38:24;31.10;59.90
16402;DHT22;8310;44.626;11.176;2023-05-07T12:40:53;31.20;59.80
16402;DHT22;8310;44.626;11.176;2023-05-07T12:43:21;31.20;59.60
16402;DHT22;8310;44.626;11.176;2023-05-07T12:45:49;31.10;59.50
16402;DHT22;8310;44.626;11.176;2023-05-07T12:48:16;31.10;59.60
16402;DHT22;8310;44.626;11.176;2023-05-07T12:50:44;31.20;59.70
16402;DHT22;8310;44.626;11.176;2023-05-07T12:53:12;31.20;59.50
16402;DHT22;8310;44.626;11.176;2023-05-07T12:55:40;31.10;58.10
16402;DHT22;8310;44.626;11.176;2023-05-07T12:58:08;31.10;57.80
16402;DHT22;8310;44.626;11.176;2023-05-07T13:00:41;31.10;59.00
16402;DHT22;8310;44.626;11.176;2023-05-07T13:03:08;31.10;59.30
16402;DHT22;8310;44.626;11.176;2023-05-07T13:05:36;31.10;59.40
16402;DHT22;8310;44.626;11.176;2023-05-07T13:08:03;31.10;59.40
16402;DHT22;8310;44.626;11.176;2023-05-07T13:10:32;31.20;59.60
16402;DHT22;8310;44.626;11.176;2023-05-07T13:12:59;31.30;59.40
16402;DHT22;8310;44.626;11.176;2023-05-07T13:15:27;31.30;59.50
16402;DHT22;8310;44.626;11.176;2023-05-07T13:17:54;31.40;59.70
16402;DHT22;8310;44.626;11.176;2023-05-07T13:20:22;31.40;59.70
16402;DHT22;8310;44.626;11.176;2023-05-07T13:22:49;31.50;59.80
16402;DHT22;8310;44.626;11.176;2023-05-07T13:25:16;31.60;59.80
16402;DHT22;8310;44.626;11.176;2023-05-07T13:27:45;31.70;59.60
16402;DHT22;8310;44.626;11.176;2023-05-07T13:30:12;31.70;59.20
16402;DHT22;8310;44.626;11.176;2023-05-07T13:32:40;31.60;58.90
16402;DHT22;8310;44.626;11.176;2023-05-07T13:35:07;31.50;58.70
16402;DHT22;8310;44.626;11.176;2023-05-07T13:37:35;31.40;58.80
16402;DHT22;8310;44.626;11.176;2023-05-07T13:40:02;31.40;58.90
16402;DHT22;8310;44.626;11.176;2023-05-07T13:42:29;31.30;58.60
16402;DHT22;8310;44.626;11.176;2023-05-07T13:44:59;31.30;58.80
16402;DHT22;8310;44.626;11.176;2023-05-07T13:47:28;31.20;59.00
16402;DHT22;8310;44.626;11.176;2023-05-07T13:49:55;31.30;59.10
16402;DHT22;8310;44.626;11.176;2023-05-07T13:52:22;31.40;59.20
16402;DHT22;8310;44.626;11.176;2023-05-07T13:54:50;31.40;59.00
16402;DHT22;8310;44.626;11.176;2023-05-07T13:57:17;31.40;59.10
16402;DHT22;8310;44.626;11.176;2023-05-07T13:59:45;31.40;59.10
16402;DHT22;8310;44.626;11.176;2023-05-07T14:02:13;31.50;59.10
16402;DHT22;8310;44.626;11.176;2023-05-07T14:04:41;31.60;59.20
16402;DHT22;8310;44.626;11.176;2023-05-07T14:07:08;31.60;59.20
16402;DHT22;8310;44.626;11.176;2023-05-07T14:09:35;31.70;59.20
16402;DHT22;8310;44.626;11.176;2023-05-07T14:12:03;31.70;59.20
16402;DHT22;8310;44.626;11.176;2023-05-07T14:14:30;31.70;59.10
16402;DHT22;8310;44.626;11.176;2023-05-07T14:16:56;31.70;59.20
16402;DHT22;8310;44.626;11.176;2023-05-07T14:19:25;31.80;59.20
16402;DHT22;8310;44.626;11.176;2023-05-07T14:21:52;31.80;59.10
16402;DHT22;8310;44.626;11.176;2023-05-07T14:24:19;31.80;58.90
16402;DHT22;8310;44.626;11.176;2023-05-07T14:26:47;31.80;58.80
16402;DHT22;8310;44.626;11.176;2023-05-07T14:29:14;31.80;58.70
16402;DHT22;8310;44.626;11.176;2023-05-07T14:31:44;31.70;58.00
16402;DHT22;8310;44.626;11.176;2023-05-07T14:34:12;31.60;58.20
16402;DHT22;8310;44.626;11.176;2023-05-07T14:36:41;31.60;58.10
16402;DHT22;8310;44.626;11.176;2023-05-07T14:39:09;31.40;55.90
16402;DHT22;8310;44.626;11.176;2023-05-07T14:41:36;31.30;57.50
16402;DHT22;8310;44.626;11.176;2023-05-07T14:44:04;31.20;57.70
16402;DHT22;8310;44.626;11.176;2023-05-07T14:46:31;31.10;57.10
16402;DHT22;8310;44.626;11.176;2023-05-07T14:48:58;31.00;57.70
16402;DHT22;8310;44.626;11.176;2023-05-07T14:51:26;30.90;58.00
16402;DHT22;8310;44.626;11.176;2023-05-07T14:53:55;31.00;58.30
16402;DHT22;8310;44.626;11.176;2023-05-07T14:56:23;31.00;58.20
16402;DHT22;8310;44.626;11.176;2023-05-07T14:58:50;31.00;58.40
16402;DHT22;8310;44.626;11.176;2023-05-07T15:01:17;31.10;58.30
16402;DHT22;8310;44.626;11.176;2023-05-07T15:03:44;31.10;57.80
16402;DHT22;8310;44.626;11.176;2023-05-07T15:06:12;31.00;57.70
16402;DHT22;8310;44.626;11.176;2023-05-07T15:08:39;30.90;57.60
16402;DHT22;8310;44.626;11.176;2023-05-07T15:11:08;30.90;57.90
16402;DHT22;8310;44.626;11.176;2023-05-07T15:13:35;30.80;57.50
16402;DHT22;8310;44.626;11.176;2023-05-07T15:16:03;30.80;57.70
16402;DHT22;8310;44.626;11.176;2023-05-07T15:18:30;30.80;57.70
16402;DHT22;8310;44.626;11.176;2023-05-07T15:20:57;30.80;57.80
16402;DHT22;8310;44.626;11.176;2023-05-07T15:23:24;30.80;57.80
16402;DHT22;8310;44.626;11.176;2023-05-07T15:25:52;30.80;57.80
16402;DHT22;8310;44.626;11.176;2023-05-07T15:28:21;30.80;57.90
16402;DHT22;8310;44.626;11.176;2023-05-07T15:30:49;30.80;58.00
16402;DHT22;8310;44.626;11.176;2023-05-07T15:33:16;30.80;58.10
16402;DHT22;8310;44.626;11.176;2023-05-07T15:35:44;30.90;58.30
16402;DHT22;8310;44.626;11.176;2023-05-07T15:38:11;30.90;58.20
16402;DHT22;8310;44.626;11.176;2023-05-07T15:40:40;31.00;58.30
16402;DHT22;8310;44.626;11.176;2023-05-07T15:43:08;31.00;58.30
16402;DHT22;8310;44.626;11.176;2023-05-07T15:45:39;31.00;58.10